createdAt,value
2019-03-15T00:01:40.207Z,7.20
2019-03-15T00:04:08.622Z,7.20
2019-03-15T00:06:37.141Z,7.20
2019-03-15T00:09:07.666Z,7.20
2019-03-15T00:11:36.089Z,7.20
2019-03-15T00:14:04.945Z,7.20
2019-03-15T00:16:33.382Z,7.20
2019-03-15T00:19:01.886Z,7.20
2019-03-15T00:21:30.314Z,7.20
2019-03-15T00:23:58.747Z,7.20
2019-03-15T00:26:27.173Z,7.20
2019-03-15T00:28:55.592Z,7.20
2019-03-15T00:31:24.018Z,7.20
2019-03-15T00:33:52.441Z,7.20
2019-03-15T00:36:21.069Z,7.20
2019-03-15T00:38:49.567Z,7.20
2019-03-15T00:41:18.020Z,7.30
2019-03-15T00:43:49.242Z,7.20
2019-03-15T00:46:16.590Z,7.20
2019-03-15T00:48:45.022Z,7.20
2019-03-15T00:51:13.462Z,7.20
2019-03-15T00:53:41.870Z,7.20
2019-03-15T00:56:10.346Z,7.20
2019-03-15T00:58:38.775Z,7.20
2019-03-15T01:01:07.213Z,7.20
2019-03-15T01:03:35.630Z,7.20
2019-03-15T01:06:04.066Z,7.20
2019-03-15T01:08:32.477Z,7.20
2019-03-15T01:11:00.897Z,7.20
2019-03-15T01:13:29.347Z,7.20
2019-03-15T01:15:57.769Z,7.20
2019-03-15T01:18:26.208Z,7.20
2019-03-15T01:20:54.623Z,7.20
2019-03-15T01:23:23.049Z,7.10
2019-03-15T01:25:51.454Z,7.20
2019-03-15T01:28:22.482Z,7.10
2019-03-15T01:30:50.886Z,7.10
2019-03-15T01:33:19.322Z,7.10
2019-03-15T01:35:47.749Z,7.10
2019-03-15T01:38:16.162Z,7.10
2019-03-15T01:40:44.599Z,7.20
2019-03-15T01:43:13.360Z,7.20
2019-03-15T01:45:42.029Z,7.10
2019-03-15T01:48:10.485Z,7.10
2019-03-15T01:50:39.085Z,7.20
2019-03-15T01:53:07.523Z,7.20
2019-03-15T01:55:35.936Z,7.20
2019-03-15T01:58:04.381Z,7.20
2019-03-15T02:00:32.861Z,7.20
2019-03-15T02:03:02.470Z,7.20
2019-03-15T02:05:31.080Z,7.20
2019-03-15T02:08:00.682Z,7.10
2019-03-15T02:10:29.305Z,7.10
2019-03-15T02:12:57.762Z,7.10
2019-03-15T02:15:26.241Z,7.10
2019-03-15T02:17:54.674Z,7.10
2019-03-15T02:20:23.094Z,7.10
2019-03-15T02:22:51.523Z,7.10
2019-03-15T02:25:19.949Z,7.10
2019-03-15T02:27:48.390Z,7.10
2019-03-15T02:30:16.884Z,7.20
2019-03-15T02:32:45.349Z,7.20
2019-03-15T02:35:13.766Z,7.20
2019-03-15T02:37:42.189Z,7.20
2019-03-15T02:40:10.596Z,7.20
2019-03-15T02:42:39.034Z,7.20
2019-03-15T02:45:07.624Z,7.30
2019-03-15T02:47:36.059Z,7.30
2019-03-15T02:50:06.141Z,7.30
2019-03-15T02:52:34.568Z,7.30
2019-03-15T02:55:03.068Z,7.40
2019-03-15T02:57:31.479Z,7.40
2019-03-15T02:59:59.897Z,7.40
2019-03-15T03:02:28.325Z,7.50
2019-03-15T03:04:56.756Z,7.50
2019-03-15T03:07:25.210Z,7.50
2019-03-15T03:09:53.632Z,7.50
2019-03-15T03:12:22.051Z,7.50
2019-03-15T03:14:50.487Z,7.50
2019-03-15T03:17:18.917Z,7.50
2019-03-15T03:19:47.348Z,7.60
2019-03-15T03:22:15.772Z,7.60
2019-03-15T03:24:44.212Z,7.60
2019-03-15T03:27:12.635Z,7.60
2019-03-15T03:29:41.085Z,7.60
2019-03-15T03:32:09.780Z,7.60
2019-03-15T03:34:40.471Z,7.60
2019-03-15T03:37:08.433Z,7.60
2019-03-15T03:39:36.876Z,7.60
2019-03-15T03:42:05.388Z,7.60
2019-03-15T03:44:33.836Z,7.60
2019-03-15T03:47:02.250Z,7.60
2019-03-15T03:49:30.681Z,7.70
2019-03-15T03:51:59.096Z,7.70
2019-03-15T03:54:27.709Z,7.60
2019-03-15T03:56:56.294Z,7.60
2019-03-15T03:59:24.746Z,7.70
2019-03-15T04:01:53.162Z,7.70
2019-03-15T04:04:21.608Z,7.70
2019-03-15T04:06:50.102Z,7.70
2019-03-15T04:09:18.545Z,7.70
2019-03-15T04:11:55.206Z,7.70
2019-03-15T04:14:17.124Z,7.70
2019-03-15T04:16:45.545Z,7.70
2019-03-15T04:19:13.990Z,7.70
2019-03-15T04:21:42.410Z,7.70
2019-03-15T04:24:10.838Z,7.70
2019-03-15T04:26:39.263Z,7.70
2019-03-15T04:29:07.727Z,7.60
2019-03-15T04:31:36.213Z,7.60
2019-03-15T04:34:04.642Z,7.50
2019-03-15T04:36:33.065Z,7.50
2019-03-15T04:39:01.536Z,7.50
2019-03-15T04:41:29.983Z,7.50
2019-03-15T04:43:58.430Z,7.50
2019-03-15T04:46:26.866Z,7.50
2019-03-15T04:48:55.302Z,7.50
2019-03-15T04:51:23.718Z,7.50
2019-03-15T04:53:52.152Z,7.50
2019-03-15T04:56:20.562Z,7.50
2019-03-15T04:58:48.989Z,7.50
2019-03-15T05:01:17.403Z,7.50
2019-03-15T05:03:45.824Z,7.50
2019-03-15T05:06:14.271Z,7.50
2019-03-15T05:08:42.681Z,7.50
2019-03-15T05:11:11.128Z,7.50
2019-03-15T05:13:39.614Z,7.50
2019-03-15T05:16:08.058Z,7.50
2019-03-15T05:18:36.466Z,7.50
2019-03-15T05:21:04.983Z,7.50
2019-03-15T05:23:33.402Z,7.50
2019-03-15T05:26:01.837Z,7.50
2019-03-15T05:28:30.251Z,7.50
2019-03-15T05:30:58.700Z,7.40
2019-03-15T05:33:27.125Z,7.40
2019-03-15T05:35:55.558Z,7.40
2019-03-15T05:38:23.994Z,7.50
2019-03-15T05:40:53.165Z,7.50
2019-03-15T05:43:21.596Z,7.50
2019-03-15T05:45:50.032Z,7.40
2019-03-15T05:48:18.450Z,7.40
2019-03-15T05:50:46.891Z,7.50
2019-03-15T05:53:15.306Z,7.40
2019-03-15T05:55:43.745Z,7.50
2019-03-15T05:58:12.167Z,7.40
2019-03-15T06:00:40.605Z,7.40
2019-03-15T06:03:12.196Z,7.50
2019-03-15T06:05:39.211Z,7.50
2019-03-15T06:08:07.631Z,7.50
2019-03-15T06:10:36.093Z,7.40
2019-03-15T06:13:04.598Z,7.50
2019-03-15T06:15:33.033Z,7.50
2019-03-15T06:18:02.361Z,7.50
2019-03-15T06:20:30.799Z,7.50
2019-03-15T06:22:59.222Z,7.50
2019-03-15T06:25:27.731Z,7.50
2019-03-15T06:27:56.155Z,7.50
2019-03-15T06:30:24.579Z,7.50
2019-03-15T06:32:53.036Z,7.50
2019-03-15T06:35:21.469Z,7.50
2019-03-15T06:37:50.710Z,7.50
2019-03-15T06:40:19.262Z,7.50
2019-03-15T06:42:47.706Z,7.60
2019-03-15T06:45:16.163Z,7.60
2019-03-15T06:47:44.601Z,7.60
2019-03-15T06:50:13.731Z,7.60
2019-03-15T06:52:42.505Z,7.60
2019-03-15T06:55:11.091Z,7.70
2019-03-15T06:57:39.522Z,7.70
2019-03-15T07:00:12.984Z,7.70
2019-03-15T07:02:41.412Z,7.70
2019-03-15T07:05:11.977Z,7.70
2019-03-15T07:07:40.562Z,7.70
2019-03-15T07:10:10.537Z,7.70
2019-03-15T07:12:40.390Z,7.70
2019-03-15T07:15:13.730Z,7.70
2019-03-15T07:17:42.167Z,7.70
2019-03-15T07:20:13.468Z,7.70
2019-03-15T07:22:41.915Z,7.80
2019-03-15T07:25:10.838Z,7.80
2019-03-15T07:27:42.173Z,7.80
2019-03-15T07:30:14.101Z,7.80
2019-03-15T07:32:42.564Z,7.80
2019-03-15T07:35:11.099Z,7.80
2019-03-15T07:37:39.581Z,7.80
2019-03-15T07:40:12.214Z,7.90
2019-03-15T07:42:40.645Z,7.90
2019-03-15T07:45:11.407Z,7.90
2019-03-15T07:47:40.082Z,7.90
2019-03-15T07:50:14.295Z,7.90
2019-03-15T07:52:41.824Z,7.90
2019-03-15T07:55:11.015Z,8.00
2019-03-15T07:57:39.454Z,8.00
2019-03-15T08:00:10.824Z,8.00
2019-03-15T08:02:39.264Z,8.00
2019-03-15T08:05:08.834Z,8.00
2019-03-15T08:07:44.322Z,8.00
2019-03-15T08:10:12.092Z,8.00
2019-03-15T08:12:40.847Z,8.10
2019-03-15T08:15:10.905Z,8.10
2019-03-15T08:17:39.345Z,8.10
2019-03-15T08:20:10.294Z,8.20
2019-03-15T08:22:38.729Z,8.20
2019-03-15T08:25:09.004Z,8.20
2019-03-15T08:27:37.467Z,8.30
2019-03-15T08:30:14.680Z,8.20
2019-03-15T08:32:44.076Z,8.30
2019-03-15T08:35:14.006Z,8.30
2019-03-15T08:37:42.454Z,8.40
2019-03-15T08:40:12.114Z,8.40
2019-03-15T08:42:41.231Z,8.40
2019-03-15T08:45:14.410Z,8.50
2019-03-15T08:47:42.876Z,8.50
2019-03-15T08:50:16.048Z,8.50
2019-03-15T08:52:44.559Z,8.60
2019-03-15T08:55:14.027Z,8.60
2019-03-15T08:57:42.486Z,8.60
2019-03-15T09:00:15.008Z,8.60
2019-03-15T09:02:43.467Z,8.60
2019-03-15T09:05:13.222Z,8.70
2019-03-15T09:07:41.705Z,8.70
2019-03-15T09:10:22.731Z,8.70
2019-03-15T09:12:44.336Z,8.80
2019-03-15T09:15:13.634Z,8.80
2019-03-15T09:17:42.323Z,8.90
2019-03-15T09:20:12.025Z,8.90
2019-03-15T09:22:41.814Z,9.00
2019-03-15T09:25:19.318Z,9.00
2019-03-15T09:27:45.430Z,9.00
2019-03-15T09:30:23.271Z,9.00
2019-03-15T09:32:44.539Z,9.00
2019-03-15T09:35:13.118Z,9.10
2019-03-15T09:37:41.629Z,9.20
2019-03-15T09:40:11.910Z,9.10
2019-03-15T09:42:40.343Z,9.10
2019-03-15T09:45:12.101Z,9.20
2019-03-15T09:47:40.785Z,9.20
2019-03-15T09:50:22.925Z,9.30
2019-03-15T09:52:43.496Z,9.40
2019-03-15T09:55:13.179Z,9.40
2019-03-15T09:57:41.864Z,9.40
2019-03-15T10:00:19.122Z,9.50
2019-03-15T10:02:47.878Z,9.50
2019-03-15T10:05:16.381Z,9.60
2019-03-15T10:07:44.980Z,9.60
2019-03-15T10:10:18.836Z,9.60
2019-03-15T10:12:47.388Z,9.70
2019-03-15T10:15:16.853Z,9.70
2019-03-15T10:17:48.333Z,9.70
2019-03-15T10:20:16.759Z,9.70
2019-03-15T10:22:45.257Z,9.80
2019-03-15T10:25:14.828Z,9.80
2019-03-15T10:27:43.331Z,9.80
2019-03-15T10:30:21.316Z,9.90
2019-03-15T10:32:49.873Z,9.90
2019-03-15T10:35:18.705Z,9.90
2019-03-15T10:37:47.123Z,9.90
2019-03-15T10:40:19.889Z,9.90
2019-03-15T10:42:48.391Z,9.90
2019-03-15T10:45:16.849Z,10.00
2019-03-15T10:47:45.276Z,10.00
2019-03-15T10:50:15.460Z,10.00
2019-03-15T10:52:43.911Z,10.10
2019-03-15T10:55:12.603Z,10.10
2019-03-15T10:57:41.017Z,10.10
2019-03-15T11:00:16.943Z,10.10
2019-03-15T11:02:45.437Z,10.10
2019-03-15T11:05:14.165Z,10.20
2019-03-15T11:07:42.593Z,10.30
2019-03-15T11:10:12.402Z,10.30
2019-03-15T11:12:40.894Z,10.30
2019-03-15T11:15:16.129Z,10.40
2019-03-15T11:17:44.561Z,10.40
2019-03-15T11:20:13.529Z,10.40
2019-03-15T11:22:42.018Z,10.50
2019-03-15T11:25:14.086Z,10.50
2019-03-15T11:27:42.510Z,10.60
2019-03-15T11:30:15.115Z,10.60
2019-03-15T11:32:43.536Z,10.60
2019-03-15T11:35:12.564Z,10.60
2019-03-15T11:37:41.091Z,10.70
2019-03-15T11:40:19.394Z,10.70
2019-03-15T11:42:48.091Z,10.70
2019-03-15T11:45:16.598Z,10.70
2019-03-15T11:48:02.038Z,10.70
2019-03-15T11:50:20.119Z,10.70
2019-03-15T11:52:48.706Z,10.70
2019-03-15T11:55:17.154Z,10.70
2019-03-15T11:57:45.729Z,10.80
2019-03-15T12:00:16.389Z,10.80
2019-03-15T12:02:44.902Z,10.80
2019-03-15T12:05:13.951Z,10.80
2019-03-15T12:07:42.464Z,10.80
2019-03-15T12:10:20.044Z,10.90
2019-03-15T12:12:51.084Z,10.80
2019-03-15T12:15:19.872Z,10.90
2019-03-15T12:17:48.289Z,10.90
2019-03-15T12:20:16.728Z,11.00
2019-03-15T12:22:45.174Z,10.90
2019-03-15T12:25:13.744Z,11.00
2019-03-15T12:27:42.194Z,11.00
2019-03-15T12:30:14.875Z,11.00
2019-03-15T12:32:43.370Z,11.10
2019-03-15T12:35:16.342Z,11.10
2019-03-15T12:37:44.842Z,11.10
2019-03-15T12:40:17.173Z,11.20
2019-03-15T12:42:45.683Z,11.20
2019-03-15T12:45:14.675Z,11.20
2019-03-15T12:47:43.141Z,11.20
2019-03-15T12:50:15.271Z,11.20
2019-03-15T12:52:47.820Z,11.20
2019-03-15T12:55:14.793Z,11.30
2019-03-15T12:57:43.217Z,11.30
2019-03-15T13:00:15.460Z,11.20
2019-03-15T13:02:43.896Z,11.30
2019-03-15T13:05:12.406Z,11.20
2019-03-15T13:07:40.898Z,11.20
2019-03-15T13:10:13.539Z,11.20
2019-03-15T13:12:41.985Z,11.20
2019-03-15T13:15:12.768Z,11.30
2019-03-15T13:17:41.187Z,11.30
2019-03-15T13:20:11.821Z,11.30
2019-03-15T13:22:40.342Z,11.40
2019-03-15T13:25:10.309Z,11.60
2019-03-15T13:27:38.744Z,11.50
2019-03-15T13:30:12.518Z,11.60
2019-03-15T13:32:40.946Z,11.80
2019-03-15T13:35:09.632Z,11.90
2019-03-15T13:37:38.050Z,11.70
2019-03-15T13:40:12.378Z,11.60
2019-03-15T13:42:40.838Z,11.60
2019-03-15T13:45:11.501Z,11.60
2019-03-15T13:47:39.945Z,11.70
2019-03-15T13:50:14.089Z,11.70
2019-03-15T13:52:42.527Z,11.60
2019-03-15T13:55:11.097Z,11.70
2019-03-15T13:57:39.549Z,11.60
2019-03-15T14:00:18.631Z,11.60
2019-03-15T14:02:47.060Z,11.60
2019-03-15T14:05:15.556Z,11.70
2019-03-15T14:07:44.066Z,11.70
2019-03-15T14:10:18.271Z,11.70
2019-03-15T14:12:46.874Z,11.70
2019-03-15T14:15:16.629Z,11.70
2019-03-15T14:17:45.053Z,11.70
2019-03-15T14:20:13.963Z,11.80
2019-03-15T14:22:42.415Z,11.70
2019-03-15T14:25:13.564Z,11.70
2019-03-15T14:27:42.094Z,11.70
2019-03-15T14:30:12.461Z,11.70
2019-03-15T14:32:40.913Z,11.70
2019-03-15T14:35:10.103Z,11.70
2019-03-15T14:37:38.676Z,11.70
2019-03-15T14:40:09.439Z,11.70
2019-03-15T14:42:37.908Z,11.80
2019-03-15T14:45:13.649Z,11.80
2019-03-15T14:47:42.145Z,11.80
2019-03-15T14:50:12.995Z,11.70
2019-03-15T14:52:41.449Z,11.70
2019-03-15T14:55:14.135Z,11.70
2019-03-15T14:57:52.147Z,11.70
2019-03-15T15:00:20.330Z,11.70
2019-03-15T15:02:48.801Z,11.70
2019-03-15T15:05:17.236Z,11.70
2019-03-15T15:07:45.674Z,11.70
2019-03-15T15:10:15.460Z,11.70
2019-03-15T15:12:43.930Z,11.80
2019-03-15T15:15:15.893Z,11.70
2019-03-15T15:17:44.407Z,11.80
2019-03-15T15:20:13.892Z,11.80
2019-03-15T15:22:42.518Z,11.80
2019-03-15T15:25:12.384Z,11.80
2019-03-15T15:27:40.838Z,11.80
2019-03-15T15:30:13.582Z,11.70
2019-03-15T15:32:42.073Z,11.70
2019-03-15T15:35:11.760Z,11.70
2019-03-15T15:37:40.270Z,11.80
2019-03-15T15:40:18.464Z,11.80
2019-03-15T15:42:46.939Z,11.80
2019-03-15T15:45:15.443Z,11.80
2019-03-15T15:47:43.886Z,11.80
2019-03-15T15:50:14.515Z,11.80
2019-03-15T15:52:43.075Z,11.80
2019-03-15T15:55:15.646Z,11.80
2019-03-15T15:57:44.085Z,11.80
2019-03-15T16:00:18.474Z,11.80
2019-03-15T16:02:46.980Z,11.80
2019-03-15T16:05:15.397Z,11.80
2019-03-15T16:07:43.901Z,11.80
2019-03-15T16:10:13.565Z,11.80
2019-03-15T16:12:42.008Z,11.80
2019-03-15T16:15:12.251Z,11.70
2019-03-15T16:17:40.761Z,11.80
2019-03-15T16:20:10.424Z,11.80
2019-03-15T16:22:38.850Z,11.80
2019-03-15T16:25:09.031Z,11.80
2019-03-15T16:27:37.551Z,11.80
2019-03-15T16:30:19.963Z,11.80
2019-03-15T16:32:48.488Z,11.80
2019-03-15T16:35:16.903Z,11.80
2019-03-15T16:37:45.360Z,11.90
2019-03-15T16:40:15.362Z,11.90
2019-03-15T16:42:43.862Z,11.90
2019-03-15T16:45:18.023Z,11.90
2019-03-15T16:47:46.462Z,11.80
2019-03-15T16:50:14.976Z,11.90
2019-03-15T16:52:43.430Z,11.90
2019-03-15T16:55:12.788Z,11.90
2019-03-15T16:57:41.350Z,11.90
2019-03-15T17:00:16.464Z,11.90
2019-03-15T17:02:44.911Z,11.90
2019-03-15T17:05:13.997Z,11.90
2019-03-15T17:07:42.816Z,11.90
2019-03-15T17:10:12.369Z,11.90
2019-03-15T17:12:41.051Z,12.00
2019-03-15T17:15:18.546Z,11.90
2019-03-15T17:17:46.987Z,12.00
2019-03-15T17:20:15.611Z,12.00
2019-03-15T17:22:44.179Z,12.00
2019-03-15T17:25:12.867Z,12.00
2019-03-15T17:27:41.330Z,12.00
2019-03-15T17:30:16.936Z,12.10
2019-03-15T17:32:45.385Z,12.10
2019-03-15T17:35:18.030Z,12.10
2019-03-15T17:37:46.471Z,12.10
2019-03-15T17:40:22.364Z,12.10
2019-03-15T17:42:50.807Z,12.20
2019-03-15T17:45:19.264Z,12.20
2019-03-15T17:47:47.843Z,12.20
2019-03-15T17:50:17.423Z,12.20
2019-03-15T17:52:45.953Z,12.20
2019-03-15T17:55:15.727Z,12.10
2019-03-15T17:57:45.803Z,12.10
2019-03-15T18:00:27.229Z,12.10
2019-03-15T18:02:55.676Z,12.10
2019-03-15T18:05:24.112Z,12.10
2019-03-15T18:07:52.565Z,12.10
2019-03-15T18:10:21.019Z,12.00
2019-03-15T18:12:49.508Z,12.10
2019-03-15T18:15:17.971Z,12.10
2019-03-15T18:17:46.403Z,12.10
2019-03-15T18:20:14.848Z,12.10
2019-03-15T18:22:43.260Z,12.00
2019-03-15T18:25:11.708Z,12.00
2019-03-15T18:27:40.202Z,12.00
2019-03-15T18:30:15.717Z,12.00
2019-03-15T18:32:44.144Z,12.00
2019-03-15T18:35:13.826Z,12.00
2019-03-15T18:37:42.269Z,12.00
2019-03-15T18:40:12.850Z,12.00
2019-03-15T18:42:41.532Z,12.00
2019-03-15T18:45:13.094Z,12.00
2019-03-15T18:47:41.655Z,12.00
2019-03-15T18:50:21.518Z,12.00
2019-03-15T18:52:50.078Z,12.00
2019-03-15T18:55:18.645Z,12.00
2019-03-15T18:57:47.137Z,12.00
2019-03-15T19:00:21.731Z,12.00
2019-03-15T19:02:50.262Z,12.00
2019-03-15T19:05:18.766Z,12.00
2019-03-15T19:07:47.256Z,12.00
2019-03-15T19:10:16.436Z,12.00
2019-03-15T19:12:44.926Z,12.00
2019-03-15T19:15:22.801Z,12.10
2019-03-15T19:17:51.244Z,12.00
2019-03-15T19:20:19.774Z,12.10
2019-03-15T19:22:48.195Z,12.10
2019-03-15T19:25:16.822Z,12.10
2019-03-15T19:27:45.361Z,12.20
2019-03-15T19:30:15.447Z,12.20
2019-03-15T19:32:43.858Z,12.20
2019-03-15T19:35:12.458Z,12.20
2019-03-15T19:37:41.022Z,12.20
2019-03-15T19:40:16.842Z,12.20
2019-03-15T19:42:45.885Z,12.30
2019-03-15T19:45:20.110Z,12.20
2019-03-15T19:47:48.570Z,12.30
2019-03-15T19:50:23.114Z,12.30
2019-03-15T19:52:51.559Z,12.30
2019-03-15T19:55:19.995Z,12.30
2019-03-15T19:57:48.420Z,12.30
2019-03-15T20:00:18.976Z,12.30
2019-03-15T20:02:47.430Z,12.30
2019-03-15T20:05:15.858Z,12.30
2019-03-15T20:07:44.497Z,12.30
2019-03-15T20:10:16.689Z,12.40
2019-03-15T20:12:45.640Z,12.40
2019-03-15T20:15:15.393Z,12.30
2019-03-15T20:17:43.793Z,12.30
2019-03-15T20:20:16.719Z,12.40
2019-03-15T20:22:45.141Z,12.40
2019-03-15T20:25:17.480Z,12.40
2019-03-15T20:27:45.984Z,12.30
2019-03-15T20:30:26.901Z,12.40
2019-03-15T20:32:55.194Z,12.30
2019-03-15T20:35:23.640Z,12.40
2019-03-15T20:37:52.177Z,12.40
2019-03-15T20:40:20.901Z,12.40
2019-03-15T20:42:49.337Z,12.40
2019-03-15T20:45:29.072Z,12.40
2019-03-15T20:47:57.495Z,12.40
2019-03-15T20:50:26.031Z,12.40
2019-03-15T20:53:07.190Z,12.40
2019-03-15T20:55:28.652Z,12.40
2019-03-15T20:57:56.154Z,12.40
2019-03-15T21:00:34.709Z,12.40
2019-03-15T21:02:54.752Z,12.40
2019-03-15T21:05:23.184Z,12.40
2019-03-15T21:07:51.699Z,12.40
2019-03-15T21:10:20.183Z,12.40
2019-03-15T21:12:48.619Z,12.40
2019-03-15T21:15:17.127Z,12.30
2019-03-15T21:17:45.576Z,12.30
2019-03-15T21:20:16.116Z,12.20
2019-03-15T21:22:44.577Z,12.20
2019-03-15T21:25:13.084Z,12.10
2019-03-15T21:27:52.991Z,12.10
2019-03-15T21:30:20.087Z,12.10
2019-03-15T21:32:48.526Z,12.10
2019-03-15T21:35:16.948Z,12.00
2019-03-15T21:37:45.398Z,11.90
2019-03-15T21:40:18.650Z,11.80
2019-03-15T21:42:47.094Z,11.90
2019-03-15T21:45:15.535Z,11.90
2019-03-15T21:47:43.966Z,11.90
2019-03-15T21:50:19.843Z,11.90
2019-03-15T21:52:48.293Z,11.80
2019-03-15T21:55:16.686Z,11.80
2019-03-15T21:57:45.407Z,11.70
2019-03-15T22:00:20.503Z,11.70
2019-03-15T22:02:48.923Z,11.70
2019-03-15T22:05:17.350Z,11.70
2019-03-15T22:07:45.796Z,11.70
2019-03-15T22:10:17.529Z,11.70
2019-03-15T22:12:45.980Z,11.70
2019-03-15T22:15:14.648Z,11.60
2019-03-15T22:17:43.226Z,11.60
2019-03-15T22:20:13.131Z,11.60
2019-03-15T22:22:41.573Z,11.60
2019-03-15T22:25:10.155Z,11.50
2019-03-15T22:27:38.790Z,11.60
2019-03-15T22:30:14.998Z,11.60
2019-03-15T22:32:43.531Z,11.60
2019-03-15T22:35:12.515Z,11.60
2019-03-15T22:37:40.950Z,11.50
2019-03-15T22:40:13.631Z,11.50
2019-03-15T22:42:42.084Z,11.50
2019-03-15T22:45:11.867Z,11.50
2019-03-15T22:47:40.398Z,11.50
2019-03-15T22:50:10.409Z,11.50
2019-03-15T22:52:38.853Z,11.50
2019-03-15T22:55:08.622Z,11.50
2019-03-15T22:57:37.058Z,11.50
2019-03-15T23:00:22.439Z,11.50
2019-03-15T23:02:51.255Z,11.40
2019-03-15T23:05:20.232Z,11.50
2019-03-15T23:07:48.670Z,11.50
2019-03-15T23:10:17.118Z,11.50
2019-03-15T23:12:45.553Z,11.50
2019-03-15T23:15:14.006Z,11.50
2019-03-15T23:17:42.444Z,11.50
2019-03-15T23:20:14.458Z,11.50
2019-03-15T23:22:42.923Z,11.40
2019-03-15T23:25:11.794Z,11.50
2019-03-15T23:27:41.086Z,11.40
2019-03-15T23:30:16.371Z,11.40
2019-03-15T23:32:45.354Z,11.40
2019-03-15T23:35:13.797Z,11.40
2019-03-15T23:37:42.268Z,11.40
2019-03-15T23:40:12.430Z,11.50
2019-03-15T23:42:40.927Z,11.40
2019-03-15T23:45:10.305Z,11.40
2019-03-15T23:47:38.910Z,11.40
2019-03-15T23:50:14.485Z,11.40
2019-03-15T23:52:42.990Z,11.40
2019-03-15T23:55:11.570Z,11.40
2019-03-15T23:57:40.035Z,11.40
